Nederland, CO

2:59 AM MST on November 29, 2014 (GMT -0700)
Berthoud Pass | Change Station
CLOSE
Current Station
Airport
Location: Berthoud Pass,
Elevation: 12490 ft
Nearby Weather Stations
Active Advisory: High Wind Watch

Elev 12490 ft 39.79 °N, 105.76 °W | Updated 4 days ago

Clear
Clear
25 °F
Feels Like 7 °F
N
35
Wind Variable Wind from West
Gusts 56 mph

Today
High -- | Low -- °F
--% Chance of Precip.
Yesterday
High -- | Low -- °F
Precip. -- in
7:02 AM 4:37 PM
Waxing Crescent, 50% visible
Pressure 29.80 in
Visibility 0.2 miles
Clouds Overcast 400 ft
Windchill 7 °F
Dew Point 7 °F
Humidity 46%
Rainfall 0.00 in
Snow Depth Not available.
UV 0 out of 12
Pollen .10 out of 12
Air Quality Not available.
Flu Activity Not available.
METAR K0CO 241435Z AUTO 29029KT M1/4SM SN OVC004 M17/M20 A2980 RMK AO2

More Conditions Fewer Conditions

Pressure 29.80 in
Visibility 0.2 miles
Clouds Overcast 400 ft
Windchill 7 °F
Dew Point 7 °F
Humidity 46%
Rainfall 0.00 in
Snow Depth Not available.
UV 0 out of 12
Pollen .10 out of 12
Air Quality Not available.
Flu Activity Not available.
METAR K0CO 241435Z AUTO 29029KT M1/4SM SN OVC004 M17/M20 A2980 RMK AO2

More Conditions Fewer Conditions

10-Day Weather Forecast

Almanac

Astronomy

Nov. 29, 2014 Rise Set
Actual Time
Civil Twilight
Nautical Twilight
Astronomical Twilight
Moon
Length of Visible Light
Length of Day
Tomorrow will be .
, % of the Moon is Illuminated

Today's Extremes

State Highs State Lows

Community

WunderPhotos

Upload Photos

1,774,442 photos uploaded!

WunderBlogs® & News

Nearby

Air Quality

  Air Quality AQ Index Pollutant
Not available.

Snow Depth

Station Depth Elevation

Earthquake Activity

City Distance Mag. Time & Date
Minimum magnitude displayed is 2.5.

Coastal Water Temperatures

Place Temperature

Nearby Weather Stations